Main page
METAR-TAF:

METAR-TAF

Airports :

Şırnak Airport

Şırnak, Turkey

latitude: 37-21-50N, longitude: 42-03-36E, elevation: 621 m

Current weather observation

The report was made 3 hours and 27 minutes ago, at 14:50 UTC
Wind 14 kt from the South
Temperature 39°C
Humidity 9%
Pressure 1007 hPa
Visibility 10 km or more
no clouds below 1500 m and no cumulonimbus

METAR: LTCV 221450Z 17014KT CAVOK 39/01 Q1007

Time: 21:17 (18:17 UTC)

Forecast

The report was made 1 hour and 37 minutes ago, at 16:40 UTC
Forecast valid from 22 at 18 UTC to 23 at 18 UTC
Wind 9 kt from the West
Visibility 10 km or more
no clouds below 1500 m and no cumulonimbus
Becoming
from 23 at 06 UTC to 23 at 09 UTC
Wind 10 kt from the South

TAF: LTCV 221640Z 2218/2318 28009KT CAVOK BECMG 2306/2309 18010KT

Weather observations and forecasts of more than 4000 airports (METAR and TAF reports).

The available stations are represented by yellow and red dots on the map.

Hover mouse over dot to see the name of the station.

Then click to see weather observations and forecasts.

To change the map : click on the green buttons with a black cross to zoom in, on the green button with a dash to zoom out, or on the green arrows for adjacent maps.


METAR-TAF: